Disclaimer

Please do not use the information listed here in-flight or in-navigation, as they are not provided to us by the airports but are provided by volunteers, so they might be outdated.

Search


Regions


Airport information page

Radio informations:
SOUTH WEST AIR B - 126.7 MHz
Brisbane Center - 124.8 MHz
Common traffic adv. frequency (CTAF) - 126.7 MHz

Airport informations:
Latitude: 26° 24' 48.00" S
Longitude: 146° 15' 45.00" E
Elevation: 1003 feet - 306 meters
Operating hours: N/A
Operating agency: Civil government, landing fees and diplomatic clearance may be required
Timezone: UTC+10
Fuel: Jet A1, without icing nhibitor.

100/130 MIL Spec, low lead, aviation gasoline (BLUE)

Runway information:
12/30 - 5000 x 98 feet< - >1524 x 30 meters
18/36 - 3501 x 75 feet< - >1067 x 23 meters

Recent METARs:
YBCV 181600Z AUTO 05009KT 9999 // NCD 30/13 Q1008
YBCV 181600Z AUTO 05009KT 9999 // NCD 30/13 Q1008
YBCV 181700Z AUTO 04009KT 9999 // NCD 29/14 Q1008

Airport on the map: